Time;durP1;ratioP1;P1;durP2;ratioP2;P2;SDS_P1;SDS_P2;PMS_P1;PMS_P2;Temp;Humidity;BMP_temperature;BMP_pressure;BME280_temperature;BME280_humidity;BME280_pressure;Samples;Min_cycle;Max_cycle;Signal;HPM_P1;HPM_P2
2022/10/03 00:01:00;;;;;;;29.95;23.38;;;;;;;;;;2086134;28;20033;-76
2022/10/03 00:02:34;;;;;;;31.83;22.17;;;;;;;;;;2088888;28;20041;-76
2022/10/03 00:04:18;;;;;;;25.13;20.83;;;;;;;;;;2090378;28;20033;-76
2022/10/03 00:06:01;;;;;;;28.27;22.70;;;;;;;;;;2088878;28;20045;-76
2022/10/03 00:07:38;;;;;;;31.73;23.52;;;;;;;;;;2061053;28;20023;-76
2022/10/03 00:09:00;;;;;;;29.42;22.70;;;;;;;;;;2087763;28;20025;-76
2022/10/03 00:10:19;;;;;;;31.92;22.10;;;;;;;;;;2088486;28;20033;-76
2022/10/03 00:11:41;;;;;;;27.08;23.10;;;;;;;;;;2089592;28;20045;-76
2022/10/03 00:13:12;;;;;;;21.83;17.40;;;;;;;;;;2086384;28;20025;-76
2022/10/03 00:15:04;;;;;;;29.70;21.88;;;;;;;;;;2087732;28;20485;-76
2022/10/03 00:16:32;;;;;;;27.73;22.10;;;;;;;;;;2057713;28;20038;-76
2022/10/03 00:17:51;;;;;;;30.25;22.63;;;;;;;;;;2089146;28;20432;-76
2022/10/03 00:19:16;;;;;;;28.27;22.10;;;;;;;;;;2078572;28;20499;-76
2022/10/03 00:20:38;;;;;;;27.60;22.83;;;;;;;;;;2076381;28;20565;-76
2022/10/03 00:22:09;;;;;;;28.13;22.60;;;;;;;;;;2086629;28;20040;-75
2022/10/03 00:23:45;;;;;;;27.05;21.35;;;;;;;;;;2089222;28;20080;-75
2022/10/03 00:25:23;;;;;;;28.63;22.15;;;;;;;;;;2079019;28;20033;-76
2022/10/03 00:27:00;;;;;;;28.95;21.27;;;;;;;;;;2085672;28;20037;-75
2022/10/03 00:28:37;;;;;;;24.95;20.48;;;;;;;;;;2078566;28;20064;-76
2022/10/03 00:30:03;;;;;;;28.65;22.02;;;;;;;;;;2088373;28;20037;-76
2022/10/03 00:31:43;;;;;;;28.35;22.52;;;;;;;;;;2087441;28;20029;-75
2022/10/03 00:33:08;;;;;;;27.45;21.05;;;;;;;;;;2085155;28;20044;-76
2022/10/03 00:34:45;;;;;;;26.38;21.42;;;;;;;;;;2087957;28;20441;-76
2022/10/03 00:36:20;;;;;;;26.83;21.73;;;;;;;;;;2086343;28;20045;-75
2022/10/03 00:37:44;;;;;;;26.08;21.67;;;;;;;;;;2089150;28;20037;-76
2022/10/03 00:39:22;;;;;;;26.25;21.13;;;;;;;;;;2077658;28;20061;-75
2022/10/03 00:40:59;;;;;;;27.38;21.05;;;;;;;;;;2085058;28;20025;-75
2022/10/03 00:42:18;;;;;;;26.67;21.55;;;;;;;;;;2089101;28;20055;-75
2022/10/03 00:43:56;;;;;;;28.40;21.52;;;;;;;;;;2088854;28;20284;-76
2022/10/03 00:45:28;;;;;;;25.33;21.25;;;;;;;;;;2078347;28;20029;-76
2022/10/03 00:46:47;;;;;;;27.75;21.17;;;;;;;;;;2085288;28;20029;-76
2022/10/03 00:48:12;;;;;;;28.48;21.15;;;;;;;;;;2090003;28;20033;-75
2022/10/03 00:49:50;;;;;;;25.25;20.70;;;;;;;;;;2089677;28;20123;-76
2022/10/03 00:51:28;;;;;;;30.30;21.88;;;;;;;;;;2085772;28;20033;-76
2022/10/03 00:52:53;;;;;;;26.88;21.80;;;;;;;;;;2085256;28;20786;-76
2022/10/03 00:54:21;;;;;;;26.92;21.23;;;;;;;;;;2080060;28;20037;-76
2022/10/03 00:55:40;;;;;;;26.33;21.00;;;;;;;;;;2085821;28;20037;-75
2022/10/03 00:57:06;;;;;;;25.17;20.85;;;;;;;;;;2086795;28;20048;-76
2022/10/03 00:58:39;;;;;;;27.75;21.92;;;;;;;;;;2088160;28;20037;-76
2022/10/03 01:00:07;;;;;;;27.83;22.02;;;;;;;;;;2089457;28;20032;-76
2022/10/03 01:01:26;;;;;;;31.17;21.58;;;;;;;;;;2087795;28;20029;-76
2022/10/03 01:02:48;;;;;;;25.65;20.95;;;;;;;;;;2087514;28;20036;-76
2022/10/03 01:04:25;;;;;;;27.98;22.25;;;;;;;;;;2079392;28;20033;-76
2022/10/03 01:06:03;;;;;;;28.02;21.58;;;;;;;;;;2086810;28;20037;-75
2022/10/03 01:07:28;;;;;;;26.60;21.45;;;;;;;;;;2085916;28;20545;-76
2022/10/03 01:08:56;;;;;;;24.65;21.10;;;;;;;;;;2086239;28;20501;-76
2022/10/03 01:10:22;;;;;;;27.75;21.92;;;;;;;;;;2078716;28;20502;-75
2022/10/03 01:11:41;;;;;;;26.02;21.00;;;;;;;;;;2078025;28;20041;-76
2022/10/03 01:13:03;;;;;;;27.38;21.17;;;;;;;;;;2083558;28;20029;-76
2022/10/03 01:14:21;;;;;;;26.92;21.55;;;;;;;;;;2087554;28;20025;-75
2022/10/03 01:15:59;;;;;;;32.35;22.95;;;;;;;;;;2086639;28;21287;-76
2022/10/03 01:17:37;;;;;;;26.95;21.48;;;;;;;;;;2078246;28;20061;-76
2022/10/03 01:19:16;;;;;;;25.25;20.90;;;;;;;;;;2086974;28;20569;-76
2022/10/03 01:20:40;;;;;;;25.45;20.70;;;;;;;;;;2087477;28;20033;-76
2022/10/03 01:22:10;;;;;;;23.50;19.83;;;;;;;;;;2079240;28;20049;-76
2022/10/03 01:23:48;;;;;;;28.13;21.80;;;;;;;;;;2086167;28;20037;-75
2022/10/03 01:25:11;;;;;;;26.02;21.55;;;;;;;;;;2086992;28;20449;-75
2022/10/03 01:26:49;;;;;;;26.17;21.30;;;;;;;;;;2087151;28;20020;-76
2022/10/03 01:32:00;;;;;;;27.33;20.90;;;;;;;;;;2087615;28;20044;-76
2022/10/03 01:33:39;;;;;;;26.75;20.58;;;;;;;;;;2086715;28;20036;-75
2022/10/03 01:34:58;;;;;;;25.90;20.63;;;;;;;;;;2088306;28;20030;-75
2022/10/03 01:36:38;;;;;;;26.00;20.90;;;;;;;;;;2079344;28;20097;-76
2022/10/03 01:37:57;;;;;;;27.33;22.00;;;;;;;;;;2086991;28;20686;-76
2022/10/03 01:39:35;;;;;;;29.70;21.92;;;;;;;;;;2087513;28;20068;-76
2022/10/03 01:41:17;;;;;;;31.15;21.38;;;;;;;;;;2087648;28;20032;-76
2022/10/03 01:42:40;;;;;;;25.20;20.85;;;;;;;;;;2068865;28;20045;-76
2022/10/03 01:44:21;;;;;;;27.98;21.42;;;;;;;;;;2083789;28;20037;-76
2022/10/03 01:45:56;;;;;;;24.80;20.77;;;;;;;;;;2084991;28;20037;-75
2022/10/03 01:47:33;;;;;;;28.58;22.10;;;;;;;;;;2087747;28;20608;-76
2022/10/03 01:49:10;;;;;;;30.83;20.88;;;;;;;;;;2079502;28;20045;-75
2022/10/03 01:50:33;;;;;;;24.48;20.40;;;;;;;;;;2079680;28;20034;-76
2022/10/03 01:52:16;;;;;;;25.23;21.13;;;;;;;;;;2076149;28;20108;-75
2022/10/03 01:53:55;;;;;;;30.17;21.85;;;;;;;;;;2088764;28;20073;-76
2022/10/03 01:55:21;;;;;;;29.35;21.60;;;;;;;;;;2086033;28;20028;-75
2022/10/03 01:57:03;;;;;;;27.50;21.42;;;;;;;;;;2087968;28;20036;-75
2022/10/03 01:58:26;;;;;;;26.80;21.77;;;;;;;;;;2076951;28;20037;-76
2022/10/03 02:00:01;;;;;;;28.67;21.65;;;;;;;;;;2082339;28;20123;-76
2022/10/03 02:01:24;;;;;;;29.50;21.73;;;;;;;;;;2088651;28;20390;-76
2022/10/03 02:02:49;;;;;;;29.13;20.90;;;;;;;;;;2084968;28;20049;-76
2022/10/03 02:04:14;;;;;;;29.30;21.88;;;;;;;;;;2077561;28;22080;-76
2022/10/03 02:05:52;;;;;;;24.88;21.02;;;;;;;;;;2083860;28;20037;-76
2022/10/03 02:07:27;;;;;;;30.27;22.10;;;;;;;;;;2087962;28;20021;-76
2022/10/03 02:08:50;;;;;;;30.98;21.00;;;;;;;;;;2079445;28;20038;-76
2022/10/03 02:10:09;;;;;;;27.75;21.23;;;;;;;;;;2083777;28;20029;-75
2022/10/03 02:11:32;;;;;;;29.67;22.13;;;;;;;;;;2088445;28;20021;-75
2022/10/03 02:12:57;;;;;;;27.88;20.48;;;;;;;;;;2085976;28;20037;-75
2022/10/03 02:14:23;;;;;;;26.48;21.23;;;;;;;;;;2088115;28;20108;-76
2022/10/03 02:16:06;;;;;;;25.52;20.50;;;;;;;;;;2086284;28;20025;-76
2022/10/03 02:17:34;;;;;;;27.30;22.00;;;;;;;;;;2060290;28;20035;-76
2022/10/03 02:19:04;;;;;;;26.02;21.17;;;;;;;;;;2088949;28;20029;-76
2022/10/03 02:20:29;;;;;;;28.27;21.20;;;;;;;;;;2078311;28;20126;-76
2022/10/03 02:21:49;;;;;;;28.20;21.25;;;;;;;;;;2086025;28;20036;-76
2022/10/03 02:23:44;;;;;;;25.45;21.05;;;;;;;;;;2086541;28;20041;-76
2022/10/03 02:25:06;;;;;;;27.95;21.20;;;;;;;;;;2052225;28;20036;-76
2022/10/03 02:26:25;;;;;;;28.95;21.58;;;;;;;;;;2062955;28;20038;-76
2022/10/03 02:28:03;;;;;;;31.55;21.48;;;;;;;;;;2086634;28;20436;-75
2022/10/03 02:29:50;;;;;;;35.58;21.77;;;;;;;;;;2088818;28;20510;-76
2022/10/03 02:31:14;;;;;;;41.35;22.05;;;;;;;;;;2087304;28;20112;-76
2022/10/03 02:32:52;;;;;;;117.60;25.73;;;;;;;;;;2087333;28;20501;-75
2022/10/03 02:34:21;;;;;;;251.65;27.77;;;;;;;;;;2088072;28;20588;-76
2022/10/03 02:35:50;;;;;;;201.00;26.48;;;;;;;;;;2088509;28;20498;-75
2022/10/03 02:37:45;;;;;;;198.30;23.83;;;;;;;;;;2088936;28;20033;-76
2022/10/03 02:39:23;;;;;;;296.92;32.00;;;;;;;;;;2054809;28;20034;-76
2022/10/03 02:41:00;;;;;;;95.90;23.15;;;;;;;;;;2053440;28;20031;-76
2022/10/03 02:42:38;;;;;;;220.48;27.90;;;;;;;;;;2086393;28;20029;-75
2022/10/03 02:44:20;;;;;;;448.67;36.85;;;;;;;;;;2086911;28;20048;-75
2022/10/03 02:45:48;;;;;;;518.17;40.00;;;;;;;;;;2086293;28;20037;-76
2022/10/03 02:47:26;;;;;;;366.95;34.70;;;;;;;;;;2084959;28;20037;-76
2022/10/03 02:48:55;;;;;;;302.30;30.92;;;;;;;;;;2078230;28;20037;-75
2022/10/03 02:50:14;;;;;;;275.33;29.08;;;;;;;;;;2086575;28;20033;-76
2022/10/03 02:51:48;;;;;;;270.27;28.90;;;;;;;;;;2086955;28;20033;-76
2022/10/03 02:53:26;;;;;;;548.03;42.95;;;;;;;;;;2086913;28;20033;-75
2022/10/03 02:54:48;;;;;;;369.77;30.88;;;;;;;;;;2088403;28;20037;-76
2022/10/03 02:56:19;;;;;;;140.68;21.40;;;;;;;;;;2087550;28;20458;-76
2022/10/03 02:57:38;;;;;;;291.48;26.65;;;;;;;;;;2085756;28;20654;-75
2022/10/03 02:58:57;;;;;;;201.88;25.50;;;;;;;;;;2086514;28;20037;-76
2022/10/03 03:00:16;;;;;;;150.57;22.25;;;;;;;;;;2086019;28;20029;-76
2022/10/03 03:01:54;;;;;;;614.88;47.22;;;;;;;;;;2087492;28;20037;-75
2022/10/03 03:03:16;;;;;;;436.95;37.00;;;;;;;;;;2087337;28;20040;-75
2022/10/03 03:05:04;;;;;;;188.30;23.23;;;;;;;;;;2087817;28;20089;-75
2022/10/03 03:06:42;;;;;;;233.90;23.40;;;;;;;;;;2047045;28;20079;-76
2022/10/03 03:08:01;;;;;;;413.20;34.42;;;;;;;;;;2078373;28;20037;-75
2022/10/03 03:09:26;;;;;;;507.83;39.40;;;;;;;;;;2087017;28;20033;-75
2022/10/03 03:11:04;;;;;;;394.17;35.03;;;;;;;;;;2086436;28;20410;-76
2022/10/03 03:12:39;;;;;;;319.23;27.15;;;;;;;;;;2086629;28;20014;-76
2022/10/03 03:14:08;;;;;;;352.20;32.85;;;;;;;;;;2087546;28;20033;-76
2022/10/03 03:15:46;;;;;;;251.70;25.23;;;;;;;;;;2086699;28;20124;-75
2022/10/03 03:17:05;;;;;;;34.55;17.60;;;;;;;;;;2088575;28;20507;-75
2022/10/03 03:18:27;;;;;;;46.15;19.42;;;;;;;;;;2079422;28;20457;-76
2022/10/03 03:19:52;;;;;;;57.13;18.10;;;;;;;;;;2083891;28;20568;-75
2022/10/03 03:21:15;;;;;;;687.83;49.28;;;;;;;;;;2088370;28;20428;-75
2022/10/03 03:22:42;;;;;;;320.08;30.58;;;;;;;;;;2085880;28;20108;-76
2022/10/03 03:24:07;;;;;;;532.58;40.45;;;;;;;;;;2087922;28;20124;-75
2022/10/03 03:25:26;;;;;;;390.48;32.67;;;;;;;;;;2088164;28;20029;-75
2022/10/03 03:26:57;;;;;;;384.25;32.50;;;;;;;;;;2079821;28;20033;-75
2022/10/03 03:28:17;;;;;;;357.90;30.13;;;;;;;;;;2084913;28;20067;-76
2022/10/03 03:29:58;;;;;;;327.55;29.20;;;;;;;;;;2078572;28;20033;-75
2022/10/03 03:31:24;;;;;;;600.88;43.45;;;;;;;;;;2088263;28;20037;-76
2022/10/03 03:32:54;;;;;;;293.38;26.52;;;;;;;;;;2077745;28;20026;-76
2022/10/03 03:34:16;;;;;;;259.40;26.52;;;;;;;;;;2077565;28;21703;-75
2022/10/03 03:35:38;;;;;;;86.80;18.38;;;;;;;;;;2076753;28;20034;-76
2022/10/03 03:37:01;;;;;;;25.45;15.95;;;;;;;;;;2086715;28;20021;-75
2022/10/03 03:38:39;;;;;;;32.33;16.13;;;;;;;;;;2089120;28;20025;-76
2022/10/03 03:39:58;;;;;;;33.60;15.95;;;;;;;;;;2089066;28;20623;-76
2022/10/03 03:41:23;;;;;;;20.75;16.02;;;;;;;;;;2090346;28;20058;-75
2022/10/03 03:43:01;;;;;;;43.47;15.95;;;;;;;;;;2088181;28;20029;-75
2022/10/03 03:44:24;;;;;;;32.20;16.00;;;;;;;;;;2089344;28;20064;-76
2022/10/03 03:45:43;;;;;;;;;;;;;;;;;;2086949;28;20024;-75
2022/10/03 03:47:08;;;;;;;28.80;15.85;;;;;;;;;;2089258;28;19912;-76
2022/10/03 03:48:39;;;;;;;20.38;14.68;;;;;;;;;;2089672;28;20112;-76
2022/10/03 03:50:17;;;;;;;22.95;15.27;;;;;;;;;;2089319;28;20052;-75
2022/10/03 03:51:52;;;;;;;18.67;14.88;;;;;;;;;;2088784;28;20033;-76
2022/10/03 03:53:30;;;;;;;16.50;14.68;;;;;;;;;;2088942;28;20033;-76
2022/10/03 03:54:49;;;;;;;121.75;19.75;;;;;;;;;;2088313;28;20037;-76
2022/10/03 03:56:08;;;;;;;44.50;16.42;;;;;;;;;;2079071;28;20033;-75
2022/10/03 03:57:36;;;;;;;103.93;18.25;;;;;;;;;;2085940;28;20029;-75
2022/10/03 03:58:55;;;;;;;22.13;15.45;;;;;;;;;;2089440;28;20033;-75
2022/10/03 04:00:28;;;;;;;46.03;16.17;;;;;;;;;;2087133;28;20489;-75
2022/10/03 04:02:16;;;;;;;216.45;21.70;;;;;;;;;;2088061;28;20025;-75
2022/10/03 04:03:51;;;;;;;151.88;19.90;;;;;;;;;;2084192;28;20025;-75
2022/10/03 04:05:16;;;;;;;247.18;24.13;;;;;;;;;;2079484;28;20494;-75
2022/10/03 04:06:38;;;;;;;213.20;23.90;;;;;;;;;;2087420;28;20065;-75
2022/10/03 04:08:11;;;;;;;166.83;21.60;;;;;;;;;;2088891;28;20025;-75
2022/10/03 04:09:45;;;;;;;105.57;18.77;;;;;;;;;;2088796;28;20231;-75
2022/10/03 04:11:17;;;;;;;27.77;15.57;;;;;;;;;;2089812;28;20037;-75
2022/10/03 04:12:39;;;;;;;56.80;16.63;;;;;;;;;;2087850;28;20036;-75
2022/10/03 04:14:17;;;;;;;25.85;14.80;;;;;;;;;;2088361;28;20029;-76
2022/10/03 04:15:53;;;;;;;32.38;15.85;;;;;;;;;;2086873;28;20041;-76
2022/10/03 04:19:12;;;;;;;121.72;19.98;;;;;;;;;;2090155;28;20032;-76
2022/10/03 04:20:37;;;;;;;100.50;19.23;;;;;;;;;;2085544;28;20037;-75
2022/10/03 04:21:56;;;;;;;45.10;16.30;;;;;;;;;;2082913;28;20037;-75
2022/10/03 04:23:33;;;;;;;152.77;20.92;;;;;;;;;;2085347;28;20128;-75
2022/10/03 04:24:53;;;;;;;36.90;16.63;;;;;;;;;;2088106;28;20708;-76
2022/10/03 04:26:26;;;;;;;25.48;16.45;;;;;;;;;;2090317;28;20032;-77
2022/10/03 04:27:53;;;;;;;21.13;15.85;;;;;;;;;;2086866;28;20501;-76
2022/10/03 04:29:31;;;;;;;18.45;14.85;;;;;;;;;;2079630;28;20037;-76
2022/10/03 04:30:52;;;;;;;16.25;14.55;;;;;;;;;;2086444;28;20100;-76
2022/10/03 04:32:33;;;;;;;18.48;16.20;;;;;;;;;;2079150;28;20506;-76
2022/10/03 04:34:07;;;;;;;15.80;13.75;;;;;;;;;;2088701;28;20029;-76
2022/10/03 04:35:35;;;;;;;15.40;13.02;;;;;;;;;;2079671;28;20531;-76
2022/10/03 04:37:04;;;;;;;15.18;13.57;;;;;;;;;;2087282;28;20512;-76
2022/10/03 04:38:44;;;;;;;15.57;13.50;;;;;;;;;;2077667;28;20030;-77
2022/10/03 04:40:06;;;;;;;18.25;16.35;;;;;;;;;;2087628;28;20029;-77
2022/10/03 04:41:56;;;;;;;15.70;14.20;;;;;;;;;;2089163;28;20029;-76
2022/10/03 04:43:36;;;;;;;16.30;14.57;;;;;;;;;;2071954;28;20050;-77
2022/10/03 04:45:16;;;;;;;16.27;14.57;;;;;;;;;;2089066;28;20033;-77
2022/10/03 04:46:59;;;;;;;16.35;14.38;;;;;;;;;;2064819;28;20035;-77
2022/10/03 04:48:18;;;;;;;14.90;13.43;;;;;;;;;;2085877;28;20029;-77
2022/10/03 04:49:52;;;;;;;15.27;13.77;;;;;;;;;;2089537;28;20033;-77
2022/10/03 04:51:19;;;;;;;17.52;14.77;;;;;;;;;;2088191;28;20036;-77
2022/10/03 04:52:48;;;;;;;31.50;16.02;;;;;;;;;;2087655;28;20029;-77
2022/10/03 04:54:17;;;;;;;19.75;15.30;;;;;;;;;;2088720;28;20062;-78
2022/10/03 04:55:42;;;;;;;19.45;15.38;;;;;;;;;;2087968;28;20035;-77
2022/10/03 04:57:09;;;;;;;18.42;13.95;;;;;;;;;;2085571;28;20032;-76
2022/10/03 04:58:47;;;;;;;25.67;14.10;;;;;;;;;;2079596;28;20029;-76
2022/10/03 05:00:22;;;;;;;42.00;15.82;;;;;;;;;;2085917;28;20108;-76
2022/10/03 05:01:49;;;;;;;37.72;16.50;;;;;;;;;;2088457;28;20037;-76
2022/10/03 05:03:09;;;;;;;16.80;14.95;;;;;;;;;;2080180;28;20034;-76
2022/10/03 05:04:33;;;;;;;14.98;13.38;;;;;;;;;;2079838;28;20017;-76
2022/10/03 05:05:58;;;;;;;31.60;15.32;;;;;;;;;;2082327;28;20037;-77
2022/10/03 05:07:40;;;;;;;22.33;15.80;;;;;;;;;;2088845;28;20021;-77
2022/10/03 05:09:19;;;;;;;18.60;15.00;;;;;;;;;;2080355;28;20053;-76
2022/10/03 05:10:37;;;;;;;15.45;13.85;;;;;;;;;;2076655;28;20418;-77
2022/10/03 05:12:12;;;;;;;16.27;14.23;;;;;;;;;;2083761;28;20083;-77
2022/10/03 05:13:38;;;;;;;15.27;13.68;;;;;;;;;;2087658;28;20120;-77
2022/10/03 05:15:19;;;;;;;16.98;13.52;;;;;;;;;;2077292;28;20038;-77
2022/10/03 05:16:42;;;;;;;14.68;13.27;;;;;;;;;;2077150;28;20034;-76
2022/10/03 05:18:09;;;;;;;15.27;13.68;;;;;;;;;;2083851;28;20444;-78
2022/10/03 05:19:52;;;;;;;14.98;12.77;;;;;;;;;;2087288;28;20437;-75
2022/10/03 05:21:11;;;;;;;14.73;13.20;;;;;;;;;;2082353;28;20030;-74
2022/10/03 05:22:33;;;;;;;14.90;13.18;;;;;;;;;;2075107;28;20025;-77
2022/10/03 05:23:52;;;;;;;15.90;14.23;;;;;;;;;;2084171;28;20037;-77
2022/10/03 05:25:17;;;;;;;14.80;13.35;;;;;;;;;;2087134;28;20029;-76
2022/10/03 05:26:39;;;;;;;14.13;12.55;;;;;;;;;;2085413;28;20041;-77
2022/10/03 05:28:17;;;;;;;13.85;12.45;;;;;;;;;;2086730;28;20033;-76
2022/10/03 05:29:36;;;;;;;15.00;13.40;;;;;;;;;;2085494;28;20406;-76
2022/10/03 05:31:15;;;;;;;15.90;13.52;;;;;;;;;;2083560;28;20041;-76
2022/10/03 05:32:47;;;;;;;15.02;13.45;;;;;;;;;;2087220;28;20162;-76
2022/10/03 05:34:08;;;;;;;14.65;13.02;;;;;;;;;;2087966;28;20029;-76
2022/10/03 05:35:35;;;;;;;14.63;12.52;;;;;;;;;;2087809;28;20104;-76
2022/10/03 05:37:01;;;;;;;13.70;12.38;;;;;;;;;;2088101;28;20032;-76
2022/10/03 05:38:20;;;;;;;13.95;12.48;;;;;;;;;;2086786;28;20025;-76
2022/10/03 05:39:44;;;;;;;14.77;13.20;;;;;;;;;;2085354;28;20028;-77
2022/10/03 05:41:09;;;;;;;15.07;13.43;;;;;;;;;;2077602;28;20029;-78
2022/10/03 05:42:34;;;;;;;14.75;13.32;;;;;;;;;;2078845;28;20037;-78
2022/10/03 05:44:01;;;;;;;15.20;13.15;;;;;;;;;;2085685;28;20124;-79
2022/10/03 05:45:43;;;;;;;13.80;12.48;;;;;;;;;;2087119;28;20024;-78
2022/10/03 05:49:02;;;;;;;13.98;12.52;;;;;;;;;;2087920;28;20443;-77
2022/10/03 05:50:47;;;;;;;13.82;12.27;;;;;;;;;;2087927;28;20037;-76
2022/10/03 05:52:17;;;;;;;16.90;13.07;;;;;;;;;;2078561;28;20026;-76
2022/10/03 05:53:52;;;;;;;14.20;12.85;;;;;;;;;;2075380;28;20022;-77
2022/10/03 05:55:31;;;;;;;15.68;13.95;;;;;;;;;;2087879;28;20029;-77
2022/10/03 05:56:50;;;;;;;15.18;13.60;;;;;;;;;;2088323;28;20205;-77
2022/10/03 05:58:24;;;;;;;14.60;13.23;;;;;;;;;;2088619;28;20033;-77
2022/10/03 05:59:50;;;;;;;16.27;14.38;;;;;;;;;;2085722;28;20435;-77
2022/10/03 06:01:09;;;;;;;15.57;13.52;;;;;;;;;;2087896;28;20068;-77
2022/10/03 06:02:28;;;;;;;16.25;14.48;;;;;;;;;;2077389;28;20523;-77
2022/10/03 06:03:50;;;;;;;17.17;14.32;;;;;;;;;;2076277;28;20132;-77
2022/10/03 06:05:28;;;;;;;17.40;14.57;;;;;;;;;;2085420;28;20103;-77
2022/10/03 06:07:01;;;;;;;16.63;14.60;;;;;;;;;;2085700;28;20037;-77
2022/10/03 06:08:47;;;;;;;18.02;15.73;;;;;;;;;;2088993;28;20037;-77
2022/10/03 06:10:08;;;;;;;18.27;16.40;;;;;;;;;;2079796;28;20030;-77
2022/10/03 06:11:42;;;;;;;15.73;14.13;;;;;;;;;;2084968;28;20025;-77
2022/10/03 06:13:04;;;;;;;16.15;14.48;;;;;;;;;;2087761;28;20415;-77
2022/10/03 06:14:23;;;;;;;17.40;15.68;;;;;;;;;;2087970;28;20024;-76
2022/10/03 06:15:42;;;;;;;20.98;16.35;;;;;;;;;;2079061;28;20029;-77
2022/10/03 06:17:08;;;;;;;18.85;16.83;;;;;;;;;;2074880;28;20030;-77
2022/10/03 06:18:51;;;;;;;19.17;16.90;;;;;;;;;;2075581;28;20021;-77
2022/10/03 06:20:16;;;;;;;17.63;15.70;;;;;;;;;;2087432;28;20022;-76
2022/10/03 06:21:51;;;;;;;18.58;16.63;;;;;;;;;;2086937;28;20021;-77
2022/10/03 06:23:28;;;;;;;16.88;15.25;;;;;;;;;;2079817;28;20078;-77
2022/10/03 06:24:56;;;;;;;19.65;17.02;;;;;;;;;;2087879;28;20105;-77
2022/10/03 06:26:18;;;;;;;19.48;16.08;;;;;;;;;;2088232;28;20093;-77
2022/10/03 06:27:56;;;;;;;18.83;16.05;;;;;;;;;;2087386;28;20485;-77
2022/10/03 06:29:35;;;;;;;18.98;17.08;;;;;;;;;;2079476;28;20137;-77
2022/10/03 06:30:54;;;;;;;17.60;15.80;;;;;;;;;;2087531;28;20279;-77
2022/10/03 06:32:16;;;;;;;18.02;16.13;;;;;;;;;;2086714;28;20037;-77
2022/10/03 06:33:47;;;;;;;20.65;16.35;;;;;;;;;;2087366;28;20497;-77
2022/10/03 06:35:13;;;;;;;19.65;16.55;;;;;;;;;;2087601;28;20029;-77
2022/10/03 06:36:35;;;;;;;18.42;16.55;;;;;;;;;;2088334;28;20432;-77
2022/10/03 06:38:03;;;;;;;20.92;16.58;;;;;;;;;;2085919;28;20032;-77
2022/10/03 06:39:28;;;;;;;18.45;16.55;;;;;;;;;;2088990;28;20474;-78
2022/10/03 06:41:02;;;;;;;19.27;16.63;;;;;;;;;;2087679;28;20493;-78
2022/10/03 06:42:29;;;;;;;19.70;17.45;;;;;;;;;;2086807;28;20029;-78
2022/10/03 06:44:00;;;;;;;20.58;18.05;;;;;;;;;;2079301;28;20469;-77
2022/10/03 06:45:38;;;;;;;22.27;17.98;;;;;;;;;;2085160;28;20028;-78
2022/10/03 06:47:03;;;;;;;22.23;18.95;;;;;;;;;;2078970;28;20526;-78
2022/10/03 06:48:37;;;;;;;26.75;20.58;;;;;;;;;;2084629;28;20041;-79
2022/10/03 06:50:19;;;;;;;24.23;19.60;;;;;;;;;;2088164;28;20490;-79
2022/10/03 06:51:38;;;;;;;26.70;21.08;;;;;;;;;;2064131;28;20047;-78
2022/10/03 06:52:57;;;;;;;25.40;20.50;;;;;;;;;;2086655;28;20405;-79
2022/10/03 06:54:16;;;;;;;25.83;21.48;;;;;;;;;;2087586;28;20033;-78
2022/10/03 06:55:54;;;;;;;24.75;21.95;;;;;;;;;;2087573;28;20493;-78
2022/10/03 06:57:20;;;;;;;29.40;22.20;;;;;;;;;;2085853;28;20033;-78
2022/10/03 06:58:52;;;;;;;27.33;21.75;;;;;;;;;;2088763;28;20028;-79
2022/10/03 07:00:14;;;;;;;24.85;21.23;;;;;;;;;;2088526;28;20033;-78
2022/10/03 07:01:52;;;;;;;27.77;22.45;;;;;;;;;;2086178;28;20037;-77
2022/10/03 07:03:37;;;;;;;30.40;22.08;;;;;;;;;;2086208;28;20040;-77
2022/10/03 07:05:18;;;;;;;28.30;21.92;;;;;;;;;;2074543;28;20029;-78
2022/10/03 07:06:42;;;;;;;29.63;21.55;;;;;;;;;;2066059;28;20564;-78
2022/10/03 07:08:01;;;;;;;25.02;21.27;;;;;;;;;;2085270;28;20045;-78
2022/10/03 07:09:21;;;;;;;28.38;22.38;;;;;;;;;;2078351;28;20030;-77
2022/10/03 07:10:54;;;;;;;23.33;20.65;;;;;;;;;;2084757;28;20109;-78
2022/10/03 07:12:22;;;;;;;26.65;21.05;;;;;;;;;;2080702;28;20034;-77
2022/10/03 07:13:47;;;;;;;22.52;20.13;;;;;;;;;;2088002;28;20063;-78
2022/10/03 07:15:25;;;;;;;23.23;20.13;;;;;;;;;;2088615;28;20396;-77
2022/10/03 07:16:56;;;;;;;20.90;18.48;;;;;;;;;;2089215;28;21548;-78
2022/10/03 07:18:37;;;;;;;23.35;20.35;;;;;;;;;;2088446;28;20044;-78
2022/10/03 07:20:01;;;;;;;20.67;17.55;;;;;;;;;;2089956;28;20025;-78
2022/10/03 07:21:20;;;;;;;22.45;19.80;;;;;;;;;;2089387;28;20033;-78
2022/10/03 07:22:46;;;;;;;26.92;20.80;;;;;;;;;;2089652;28;20107;-77
2022/10/03 07:24:05;;;;;;;22.65;20.23;;;;;;;;;;2090124;28;20044;-78
2022/10/03 07:25:24;;;;;;;23.45;20.15;;;;;;;;;;2080439;28;20029;-78
2022/10/03 07:26:49;;;;;;;22.45;20.02;;;;;;;;;;2084950;28;20037;-77
2022/10/03 07:28:27;;;;;;;22.67;20.15;;;;;;;;;;2086956;28;20037;-78
2022/10/03 07:29:55;;;;;;;25.10;19.48;;;;;;;;;;2088221;28;20108;-78
2022/10/03 07:31:17;;;;;;;21.38;19.02;;;;;;;;;;2088815;28;20040;-78
2022/10/03 07:32:39;;;;;;;21.60;19.17;;;;;;;;;;2081746;28;20080;-77
2022/10/03 07:34:17;;;;;;;21.95;19.70;;;;;;;;;;2086739;28;20025;-77
2022/10/03 07:39:09;;;;;;;21.02;18.92;;;;;;;;;;2089838;28;20025;-77
2022/10/03 07:40:39;;;;;;;22.23;19.15;;;;;;;;;;2089496;28;20029;-77
2022/10/03 07:42:10;;;;;;;21.08;18.85;;;;;;;;;;2088451;28;20112;-77
2022/10/03 07:43:43;;;;;;;21.35;19.00;;;;;;;;;;2086815;28;20048;-77
2022/10/03 07:45:05;;;;;;;22.73;19.50;;;;;;;;;;2080643;28;20404;-77
2022/10/03 07:46:36;;;;;;;21.77;19.48;;;;;;;;;;2085585;28;20037;-79
2022/10/03 07:48:14;;;;;;;20.70;18.42;;;;;;;;;;2080305;28;20049;-79
2022/10/03 07:49:35;;;;;;;23.02;19.00;;;;;;;;;;2089438;28;20033;-79
2022/10/03 07:50:58;;;;;;;23.48;18.67;;;;;;;;;;2079431;28;20402;-79
2022/10/03 07:52:16;;;;;;;24.90;18.50;;;;;;;;;;2086209;28;20032;-79
2022/10/03 07:53:54;;;;;;;21.63;19.20;;;;;;;;;;2088447;28;20437;-79
2022/10/03 07:55:31;;;;;;;21.23;18.92;;;;;;;;;;2088843;28;20576;-79
2022/10/03 07:56:56;;;;;;;21.73;18.15;;;;;;;;;;2079723;28;20105;-77
2022/10/03 07:58:16;;;;;;;22.30;17.13;;;;;;;;;;2085353;28;20029;-76
2022/10/03 07:59:54;;;;;;;20.33;18.23;;;;;;;;;;2088125;28;20432;-77
2022/10/03 08:01:29;;;;;;;20.73;18.50;;;;;;;;;;2087465;28;20045;-77
2022/10/03 08:03:03;;;;;;;21.23;18.95;;;;;;;;;;2089004;28;20436;-79
2022/10/03 08:04:28;;;;;;;20.80;18.23;;;;;;;;;;2087922;28;20037;-80
2022/10/03 08:06:02;;;;;;;21.92;19.23;;;;;;;;;;2089155;28;20029;-80
2022/10/03 08:07:40;;;;;;;19.88;17.80;;;;;;;;;;2089286;28;20025;-79
2022/10/03 08:09:19;;;;;;;20.52;18.42;;;;;;;;;;2088293;28;20156;-77
2022/10/03 08:10:53;;;;;;;20.05;17.77;;;;;;;;;;2087512;28;20021;-77
2022/10/03 08:12:24;;;;;;;23.05;18.65;;;;;;;;;;2088846;28;20196;-77
2022/10/03 08:13:59;;;;;;;22.70;19.17;;;;;;;;;;2087543;28;20029;-77
2022/10/03 08:15:20;;;;;;;19.45;16.02;;;;;;;;;;2088060;28;20033;-77
2022/10/03 08:16:39;;;;;;;17.70;15.93;;;;;;;;;;2088755;28;20029;-80
2022/10/03 08:17:58;;;;;;;17.33;15.63;;;;;;;;;;2087224;28;20529;-80
2022/10/03 08:19:40;;;;;;;24.35;17.05;;;;;;;;;;2080234;28;20089;-78
2022/10/03 08:21:00;;;;;;;21.42;16.27;;;;;;;;;;2079555;28;20494;-78
2022/10/03 08:22:25;;;;;;;19.52;17.42;;;;;;;;;;2077618;28;20117;-78
2022/10/03 08:24:02;;;;;;;20.63;16.83;;;;;;;;;;2086441;28;20882;-78
2022/10/03 08:25:28;;;;;;;19.80;16.17;;;;;;;;;;2089273;28;20071;-78
2022/10/03 08:27:02;;;;;;;18.83;16.75;;;;;;;;;;2087992;28;20060;-77
2022/10/03 08:28:20;;;;;;;;;;;;;;;;;;2087965;28;20422;-78
2022/10/03 08:29:52;;;;;;;17.08;14.70;;;;;;;;;;2087765;28;19952;-78
2022/10/03 08:31:29;;;;;;;19.10;14.68;;;;;;;;;;2089061;28;20470;-78
2022/10/03 08:32:48;;;;;;;20.30;15.57;;;;;;;;;;2089258;28;20052;-78
2022/10/03 08:34:13;;;;;;;18.75;15.48;;;;;;;;;;2087829;28;20543;-78
2022/10/03 08:35:41;;;;;;;16.83;15.07;;;;;;;;;;2087230;28;20645;-77
2022/10/03 08:37:10;;;;;;;17.40;15.20;;;;;;;;;;2087587;28;20037;-77
2022/10/03 08:38:44;;;;;;;16.98;14.57;;;;;;;;;;2080464;28;20033;-78
2022/10/03 08:40:22;;;;;;;16.50;14.85;;;;;;;;;;2087728;28;20029;-78
2022/10/03 08:41:59;;;;;;;15.63;14.00;;;;;;;;;;2087011;28;20505;-78
2022/10/03 08:43:37;;;;;;;18.55;14.68;;;;;;;;;;2088090;28;20045;-78
2022/10/03 08:44:56;;;;;;;15.38;13.98;;;;;;;;;;2078109;28;20112;-78
2022/10/03 08:46:20;;;;;;;21.25;14.38;;;;;;;;;;2076750;28;20026;-77
2022/10/03 08:47:52;;;;;;;14.88;13.50;;;;;;;;;;2086547;28;20057;-78
2022/10/03 08:49:30;;;;;;;20.35;14.95;;;;;;;;;;2087853;28;20024;-78
2022/10/03 08:51:07;;;;;;;17.50;13.90;;;;;;;;;;2080075;28;20030;-78
2022/10/03 08:52:39;;;;;;;19.58;14.82;;;;;;;;;;2088458;28;20488;-78